Time;durP1;ratioP1;P1;durP2;ratioP2;P2;SDS_P1;SDS_P2;PMS_P1;PMS_P2;Temp;Humidity;BMP_temperature;BMP_pressure;BME280_temperature;BME280_humidity;BME280_pressure;Samples;Min_cycle;Max_cycle;Signal;HPM_P1;HPM_P2
2023/02/06 00:00:34;;;;;;;10.38;6.38;;;22.50;99.90;;;;;;5085818;28;20082;-54
2023/02/06 00:03:00;;;;;;;10.87;6.10;;;22.50;99.90;;;;;;5079647;28;20035;-54
2023/02/06 00:05:26;;;;;;;8.77;6.28;;;22.50;99.90;;;;;;5082834;28;20250;-53
2023/02/06 00:07:52;;;;;;;8.77;5.65;;;22.50;99.90;;;;;;5091013;28;20574;-54
2023/02/06 00:10:18;;;;;;;10.02;6.43;;;22.40;99.90;;;;;;5093517;28;20020;-53
2023/02/06 00:12:43;;;;;;;11.27;6.47;;;22.40;99.90;;;;;;5079861;28;20036;-54
2023/02/06 00:15:09;;;;;;;9.48;6.32;;;22.40;99.90;;;;;;5093523;28;20385;-53
2023/02/06 00:17:36;;;;;;;11.95;6.32;;;22.40;99.90;;;;;;5093170;28;20020;-54
2023/02/06 00:20:06;;;;;;;8.43;5.70;;;22.40;99.90;;;;;;5093418;28;20028;-54
2023/02/06 00:22:32;;;;;;;10.18;6.22;;;22.30;99.90;;;;;;5077812;28;20498;-54
2023/02/06 00:24:58;;;;;;;11.13;6.68;;;22.30;99.90;;;;;;5073183;28;20052;-54
2023/02/06 00:27:24;;;;;;;9.80;6.88;;;22.30;99.90;;;;;;5072603;28;20079;-54
2023/02/06 00:29:50;;;;;;;10.85;6.78;;;22.30;99.90;;;;;;5072751;28;20186;-54
2023/02/06 00:32:16;;;;;;;10.20;6.15;;;22.30;99.90;;;;;;5072637;28;20104;-54
2023/02/06 00:34:42;;;;;;;10.93;6.40;;;22.30;99.90;;;;;;5085718;28;20016;-54
2023/02/06 00:37:08;;;;;;;10.27;6.03;;;22.30;99.90;;;;;;5072731;28;20104;-52
2023/02/06 00:39:33;;;;;;;9.15;6.35;;;22.20;99.90;;;;;;5076895;28;20027;-55
2023/02/06 00:41:59;;;;;;;10.63;7.28;;;22.20;99.90;;;;;;5093215;28;20077;-54
2023/02/06 00:44:25;;;;;;;10.48;6.63;;;22.20;99.90;;;;;;5075815;28;20020;-53
2023/02/06 00:46:51;;;;;;;10.85;6.72;;;22.20;99.90;;;;;;5072294;28;20040;-54
2023/02/06 00:49:17;;;;;;;10.93;5.97;;;22.20;99.90;;;;;;5074509;28;20428;-54
2023/02/06 00:51:42;;;;;;;9.48;6.65;;;22.10;99.90;;;;;;5092723;28;20504;-54
2023/02/06 00:54:08;;;;;;;9.27;6.45;;;22.10;99.90;;;;;;5092648;28;20039;-54
2023/02/06 00:56:34;;;;;;;10.20;6.90;;;22.10;99.90;;;;;;5084295;28;20230;-54
2023/02/06 00:59:03;;;;;;;11.05;6.38;;;22.10;99.90;;;;;;5088113;28;20032;-54
2023/02/06 01:01:29;;;;;;;8.75;6.25;;;22.10;99.90;;;;;;5092634;28;20404;-54
2023/02/06 01:03:55;;;;;;;9.27;6.18;;;22.10;99.90;;;;;;5078214;28;20123;-54
2023/02/06 01:06:21;;;;;;;13.82;7.07;;;22.00;99.90;;;;;;5079505;28;20048;-54
2023/02/06 01:08:47;;;;;;;12.80;7.13;;;22.00;99.90;;;;;;5092507;28;20028;-54
2023/02/06 01:11:16;;;;;;;12.85;6.85;;;22.00;99.90;;;;;;5073140;28;20060;-53
2023/02/06 01:13:42;;;;;;;8.80;6.40;;;22.00;99.90;;;;;;5084718;28;20081;-54
2023/02/06 01:16:10;;;;;;;10.70;6.35;;;22.00;99.90;;;;;;5087757;28;20055;-55
2023/02/06 01:18:37;;;;;;;9.95;6.25;;;22.00;99.90;;;;;;5053955;28;20095;-53
2023/02/06 01:21:11;;;;;;;10.45;6.57;;;22.00;99.90;;;;;;5090749;28;20107;-54
2023/02/06 01:23:38;;;;;;;10.77;6.90;;;22.00;99.90;;;;;;5080960;28;20536;-54
2023/02/06 01:26:06;;;;;;;8.88;6.15;;;22.00;99.90;;;;;;5090403;28;20045;-55
2023/02/06 01:28:34;;;;;;;7.78;5.60;;;21.90;99.90;;;;;;5092425;28;20089;-55
2023/02/06 01:31:00;;;;;;;10.55;6.00;;;21.90;99.90;;;;;;5075074;28;20008;-54
2023/02/06 01:33:25;;;;;;;11.73;6.45;;;21.90;99.90;;;;;;5071924;28;20043;-53
2023/02/06 01:35:55;;;;;;;11.38;6.63;;;21.90;99.90;;;;;;5073554;28;20024;-54
2023/02/06 01:38:21;;;;;;;9.10;5.88;;;21.90;99.90;;;;;;5082369;28;20409;-53
2023/02/06 01:40:47;;;;;;;9.93;5.95;;;21.90;99.90;;;;;;5085211;28;20023;-53
2023/02/06 01:43:19;;;;;;;10.65;5.85;;;21.90;99.90;;;;;;5071786;28;20024;-53
2023/02/06 01:45:46;;;;;;;12.27;5.85;;;21.80;99.90;;;;;;5073163;28;20021;-53
2023/02/06 01:48:19;;;;;;;11.35;6.57;;;21.90;99.90;;;;;;5083468;28;20032;-55
2023/02/06 01:50:50;;;;;;;8.35;5.53;;;21.80;99.90;;;;;;5067100;28;20046;-54
2023/02/06 01:53:16;;;;;;;8.82;6.00;;;21.80;99.90;;;;;;5080240;28;20024;-54
2023/02/06 01:55:44;;;;;;;7.27;5.13;;;21.80;99.90;;;;;;5091223;28;20020;-53
2023/02/06 01:58:13;;;;;;;8.55;4.95;;;21.70;99.90;;;;;;5079535;28;20072;-54
2023/02/06 02:00:39;;;;;;;9.02;5.40;;;21.80;99.90;;;;;;5092161;28;20050;-54
2023/02/06 02:03:05;;;;;;;7.97;5.88;;;21.80;99.90;;;;;;5067232;28;20024;-54
2023/02/06 02:05:32;;;;;;;8.43;5.07;;;21.70;99.90;;;;;;5071728;28;20024;-55
2023/02/06 02:08:07;;;;;;;8.30;5.70;;;21.70;99.90;;;;;;5071278;28;20028;-55
2023/02/06 02:10:33;;;;;;;7.70;5.15;;;21.70;99.90;;;;;;5071728;28;20032;-56
2023/02/06 02:12:58;;;;;;;8.18;5.70;;;21.70;99.90;;;;;;5084954;28;20025;-54
2023/02/06 02:15:51;;;;;;;8.75;5.70;;;21.70;99.90;;;;;;5066399;28;20020;-55
2023/02/06 02:18:26;;;;;;;6.70;4.70;;;21.70;99.90;;;;;;5060092;28;20102;-55
2023/02/06 02:21:20;;;;;;;8.57;5.28;;;21.60;99.90;;;;;;5084853;28;20013;-55
2023/02/06 02:24:00;;;;;;;8.98;5.32;;;21.60;99.90;;;;;;5083418;28;20021;-55
2023/02/06 02:26:53;;;;;;;7.50;5.63;;;21.60;99.90;;;;;;5061523;28;20055;-55
2023/02/06 02:29:34;;;;;;;7.15;4.60;;;21.60;99.90;;;;;;5075162;28;20374;-55
2023/02/06 02:32:05;;;;;;;6.18;4.85;;;21.60;99.90;;;;;;5075190;28;20052;-54
2023/02/06 02:35:01;;;;;;;8.82;5.22;;;21.60;99.90;;;;;;5088849;28;20024;-54
2023/02/06 02:37:34;;;;;;;7.13;4.85;;;21.50;99.90;;;;;;5076366;28;20051;-54
2023/02/06 02:40:27;;;;;;;8.13;5.00;;;21.50;99.90;;;;;;5095352;28;20485;-55
2023/02/06 02:43:07;;;;;;;7.72;4.68;;;21.50;99.90;;;;;;5090679;28;20013;-55
2023/02/06 02:45:59;;;;;;;6.88;4.47;;;21.50;99.90;;;;;;5074755;28;20021;-55
2023/02/06 02:48:33;;;;;;;6.05;4.35;;;21.50;99.90;;;;;;5043718;28;20494;-54
2023/02/06 02:51:00;;;;;;;6.32;4.65;;;21.40;99.90;;;;;;5087922;28;20029;-55
2023/02/06 02:53:26;;;;;;;5.15;4.25;;;21.40;99.90;;;;;;5074811;28;20452;-56
2023/02/06 02:55:52;;;;;;;6.63;4.50;;;21.40;99.90;;;;;;5056824;28;20127;-55
2023/02/06 02:58:25;;;;;;;8.32;5.03;;;21.40;99.90;;;;;;5083420;28;20066;-57
2023/02/06 03:01:01;;;;;;;6.90;4.63;;;21.40;99.90;;;;;;5092604;23;20151;-49
2023/02/06 03:03:29;;;;;;;5.82;4.47;;;21.40;99.90;;;;;;5074651;28;20028;-49
2023/02/06 03:06:20;;;;;;;7.82;4.40;;;21.40;99.90;;;;;;5090812;28;20016;-49
2023/02/06 03:09:14;;;;;;;7.35;4.80;;;21.40;99.90;;;;;;5067872;28;20395;-49
2023/02/06 03:11:46;;;;;;;6.43;4.57;;;21.30;99.90;;;;;;5062949;28;20028;-48
2023/02/06 03:14:26;;;;;;;6.15;4.05;;;21.30;99.90;;;;;;5074030;28;20179;-48
2023/02/06 03:17:05;;;;;;;5.95;3.88;;;21.30;99.90;;;;;;5074196;28;20359;-49
2023/02/06 03:19:55;;;;;;;5.20;4.18;;;21.30;99.90;;;;;;5079430;28;20547;-49
2023/02/06 03:22:24;;;;;;;5.75;4.10;;;21.30;99.90;;;;;;5045648;28;20040;-48
2023/02/06 03:24:59;;;;;;;5.63;4.18;;;21.30;99.90;;;;;;5063306;28;20031;-49
2023/02/06 03:27:28;;;;;;;6.40;4.22;;;21.20;99.90;;;;;;5044337;28;20040;-48
2023/02/06 03:30:03;;;;;;;7.65;4.97;;;21.20;99.90;;;;;;5086480;28;20485;-49
2023/02/06 03:32:34;;;;;;;5.75;4.05;;;21.20;99.90;;;;;;5066783;28;20044;-48
2023/02/06 03:35:17;;;;;;;5.93;4.38;;;21.20;99.90;;;;;;5065592;28;20036;-48
2023/02/06 03:37:44;;;;;;;6.65;4.10;;;21.20;99.90;;;;;;5058581;28;20020;-48
2023/02/06 03:40:12;;;;;;;7.78;4.18;;;21.20;99.90;;;;;;5035976;28;20479;-48
2023/02/06 03:42:42;;;;;;;6.65;4.13;;;21.20;99.90;;;;;;5086038;28;20040;-48
2023/02/06 03:45:37;;;;;;;5.43;4.10;;;21.20;99.90;;;;;;5073819;28;20025;-46
2023/02/06 03:48:14;;;;;;;5.93;3.95;;;21.20;99.90;;;;;;5069493;28;20041;-46
2023/02/06 03:50:43;;;;;;;5.85;4.03;;;21.20;99.90;;;;;;5086624;28;20047;-46
2023/02/06 03:53:15;;;;;;;5.82;4.28;;;21.10;99.90;;;;;;5080611;28;20086;-47
2023/02/06 03:55:44;;;;;;;6.25;3.75;;;21.10;99.90;;;;;;5063095;28;20108;-47
2023/02/06 03:58:13;;;;;;;5.20;3.85;;;21.10;99.90;;;;;;5067907;28;20024;-46
2023/02/06 04:00:45;;;;;;;7.25;3.65;;;21.10;99.90;;;;;;5072729;28;20051;-49
2023/02/06 04:03:13;;;;;;;4.85;3.97;;;21.10;99.90;;;;;;5068287;28;20023;-47
2023/02/06 04:05:40;;;;;;;6.15;4.10;;;21.10;99.90;;;;;;5079003;28;20094;-47
2023/02/06 04:08:06;;;;;;;8.80;3.95;;;21.10;99.90;;;;;;5087654;28;20032;-46
2023/02/06 04:10:37;;;;;;;5.28;3.80;;;21.10;99.90;;;;;;5073182;28;20039;-47
2023/02/06 04:13:03;;;;;;;5.45;3.90;;;21.00;99.90;;;;;;5046109;28;20020;-47
2023/02/06 04:15:29;;;;;;;5.03;3.33;;;21.00;99.90;;;;;;5093324;28;20069;-47
2023/02/06 04:17:55;;;;;;;7.55;4.45;;;21.00;99.90;;;;;;5093258;28;20027;-48
2023/02/06 04:20:20;;;;;;;4.63;3.53;;;21.00;99.90;;;;;;5093469;28;20103;-47
2023/02/06 04:22:46;;;;;;;6.18;3.75;;;21.00;99.90;;;;;;5079642;28;20542;-46
2023/02/06 04:25:12;;;;;;;5.63;3.60;;;21.00;99.90;;;;;;5082948;28;20107;-47
2023/02/06 04:27:38;;;;;;;7.30;4.20;;;21.00;99.90;;;;;;5054938;28;20481;-47
2023/02/06 04:30:05;;;;;;;5.55;3.42;;;21.00;99.90;;;;;;5093286;28;20024;-47
2023/02/06 04:32:30;;;;;;;6.35;3.72;;;20.90;99.90;;;;;;5073041;28;20046;-47
2023/02/06 04:34:57;;;;;;;8.38;3.97;;;20.90;99.90;;;;;;5072800;28;20474;-47
2023/02/06 04:37:23;;;;;;;5.63;3.60;;;20.90;99.90;;;;;;5087095;28;20122;-47
2023/02/06 04:39:49;;;;;;;5.60;4.07;;;20.90;99.90;;;;;;5080703;28;20492;-47
2023/02/06 04:42:15;;;;;;;4.82;3.88;;;20.90;99.90;;;;;;5079067;28;20024;-48
2023/02/06 04:44:40;;;;;;;4.70;3.40;;;20.90;99.90;;;;;;5086886;28;20043;-47
2023/02/06 04:47:06;;;;;;;4.72;3.45;;;20.90;99.90;;;;;;5072261;28;20109;-47
2023/02/06 04:49:32;;;;;;;5.35;3.40;;;20.90;99.90;;;;;;5073786;28;20027;-47
2023/02/06 04:51:58;;;;;;;5.40;3.83;;;20.90;99.90;;;;;;5063978;28;20525;-48
2023/02/06 04:54:24;;;;;;;5.20;3.58;;;20.80;99.90;;;;;;5085764;28;20420;-48
2023/02/06 04:56:49;;;;;;;4.75;3.53;;;20.80;99.90;;;;;;5072296;28;20378;-48
2023/02/06 05:01:47;;;;;;;8.52;3.88;;;20.80;99.90;;;;;;5050907;28;20045;-55
2023/02/06 05:04:13;;;;;;;5.93;3.72;;;20.80;99.90;;;;;;5054006;28;20029;-55
2023/02/06 05:06:39;;;;;;;5.38;3.20;;;20.80;99.90;;;;;;5046068;28;20487;-56
2023/02/06 05:09:05;;;;;;;4.97;3.47;;;20.80;99.90;;;;;;5052117;28;20505;-55
2023/02/06 05:11:31;;;;;;;4.90;3.50;;;20.80;99.90;;;;;;5059109;28;20478;-56
2023/02/06 05:13:57;;;;;;;4.93;3.08;;;20.80;99.90;;;;;;5072166;28;20025;-55
2023/02/06 05:16:23;;;;;;;4.10;3.10;;;20.80;99.90;;;;;;5067083;28;20020;-54
2023/02/06 05:18:55;;;;;;;6.22;3.38;;;20.80;99.90;;;;;;5064189;28;20024;-54
2023/02/06 05:21:21;;;;;;;5.07;3.30;;;20.70;99.90;;;;;;5066909;28;20021;-53
2023/02/06 05:23:47;;;;;;;6.05;3.63;;;20.70;99.90;;;;;;5071601;28;20031;-55
2023/02/06 05:26:13;;;;;;;6.20;3.15;;;20.70;99.90;;;;;;5071783;28;20021;-54
2023/02/06 05:28:38;;;;;;;5.88;3.50;;;20.70;99.90;;;;;;5071374;28;20035;-53
2023/02/06 05:31:04;;;;;;;8.43;3.28;;;20.70;99.90;;;;;;5070747;28;20378;-53
2023/02/06 05:33:30;;;;;;;5.00;3.42;;;20.70;99.90;;;;;;5071030;28;20029;-52
2023/02/06 05:36:04;;;;;;;7.32;3.90;;;20.70;99.90;;;;;;5065148;28;20032;-55
2023/02/06 05:38:30;;;;;;;5.30;3.03;;;20.70;99.90;;;;;;5051683;28;20032;-56
2023/02/06 05:40:56;;;;;;;3.97;3.38;;;20.70;99.90;;;;;;5051729;28;20017;-55
2023/02/06 05:43:21;;;;;;;5.47;3.35;;;20.70;99.90;;;;;;5064489;28;20508;-54
2023/02/06 05:45:47;;;;;;;6.38;3.50;;;20.70;99.90;;;;;;5058494;28;20019;-55
2023/02/06 05:48:13;;;;;;;5.30;2.80;;;20.70;99.90;;;;;;5061406;28;20040;-57
2023/02/06 05:50:39;;;;;;;9.25;3.80;;;20.70;99.90;;;;;;5064569;28;20600;-56
2023/02/06 05:53:04;;;;;;;6.85;3.25;;;20.70;99.90;;;;;;5040093;28;20355;-55
2023/02/06 05:55:30;;;;;;;6.63;3.15;;;20.70;99.90;;;;;;5071753;28;20031;-55
2023/02/06 05:57:56;;;;;;;4.28;3.00;;;20.70;99.90;;;;;;5058107;28;20044;-57
2023/02/06 06:00:22;;;;;;;4.68;3.45;;;20.60;99.90;;;;;;5044755;28;20106;-56
2023/02/06 06:02:47;;;;;;;7.88;3.00;;;20.60;99.90;;;;;;5058365;28;20489;-55
2023/02/06 06:05:13;;;;;;;6.00;3.20;;;20.60;99.90;;;;;;5076016;28;20028;-55
2023/02/06 06:07:39;;;;;;;5.13;3.25;;;20.60;99.90;;;;;;5075459;28;20024;-55
2023/02/06 06:10:06;;;;;;;4.38;3.17;;;20.60;99.90;;;;;;5075609;28;20052;-54
2023/02/06 06:12:31;;;;;;;5.75;3.58;;;20.60;99.90;;;;;;5072101;28;20032;-55
2023/02/06 06:14:57;;;;;;;7.80;4.20;;;20.60;99.90;;;;;;5055449;28;20027;-55
2023/02/06 06:17:23;;;;;;;17.88;3.90;;;20.60;99.90;;;;;;5070774;28;20373;-55
2023/02/06 06:19:49;;;;;;;5.05;3.17;;;20.60;99.90;;;;;;5075612;28;20024;-55
2023/02/06 06:22:14;;;;;;;5.40;3.33;;;20.60;99.90;;;;;;5061428;28;20033;-55
2023/02/06 06:24:40;;;;;;;4.00;2.92;;;20.60;99.90;;;;;;5055296;28;20025;-54
2023/02/06 06:27:09;;;;;;;7.80;3.50;;;20.60;99.90;;;;;;5068351;28;20466;-54
2023/02/06 06:29:35;;;;;;;6.13;3.20;;;20.60;99.90;;;;;;5056015;28;20032;-54
2023/02/06 06:32:02;;;;;;;4.22;2.75;;;20.60;99.90;;;;;;5067656;28;20051;-56
2023/02/06 06:34:28;;;;;;;6.70;3.17;;;20.50;99.90;;;;;;5070653;28;20051;-55
2023/02/06 06:36:53;;;;;;;5.32;3.42;;;20.50;99.90;;;;;;5055070;28;20301;-55
2023/02/06 06:39:19;;;;;;;5.40;2.90;;;20.50;99.90;;;;;;5054919;28;20493;-54
2023/02/06 06:41:45;;;;;;;4.53;3.15;;;20.50;99.90;;;;;;5055331;28;20154;-55
2023/02/06 06:44:11;;;;;;;7.55;3.65;;;20.50;99.90;;;;;;5054647;28;20324;-55
2023/02/06 06:46:37;;;;;;;7.38;3.10;;;20.50;99.90;;;;;;5065712;28;20474;-55
2023/02/06 06:49:02;;;;;;;5.05;2.67;;;20.50;99.90;;;;;;5058756;28;20029;-55
2023/02/06 06:51:28;;;;;;;6.35;3.53;;;20.50;99.90;;;;;;5068087;28;20071;-54
2023/02/06 06:53:57;;;;;;;4.03;2.92;;;20.50;99.90;;;;;;5054774;28;20021;-54
2023/02/06 06:56:23;;;;;;;4.60;3.08;;;20.40;99.90;;;;;;5068093;28;20096;-55
2023/02/06 06:58:49;;;;;;;6.53;3.63;;;20.40;99.90;;;;;;5036837;28;20090;-55
2023/02/06 07:01:16;;;;;;;5.15;4.03;;;20.40;99.90;;;;;;5054583;28;20041;-54
2023/02/06 07:03:47;;;;;;;4.40;2.72;;;20.40;99.90;;;;;;5054550;28;20029;-56
2023/02/06 07:06:14;;;;;;;5.43;3.25;;;20.40;99.90;;;;;;5054490;28;20446;-55
2023/02/06 07:08:40;;;;;;;5.00;3.43;;;20.40;99.90;;;;;;5054510;28;20044;-55
2023/02/06 07:11:13;;;;;;;7.07;3.40;;;20.40;99.90;;;;;;5057278;28;20012;-56
2023/02/06 07:13:40;;;;;;;5.55;2.97;;;20.40;99.90;;;;;;5074364;28;20278;-55
2023/02/06 07:16:07;;;;;;;3.80;2.97;;;20.40;99.90;;;;;;5055860;28;20021;-55
2023/02/06 07:18:32;;;;;;;4.65;3.38;;;20.40;99.90;;;;;;5064011;28;20108;-56
2023/02/06 07:20:58;;;;;;;5.43;3.63;;;20.40;99.90;;;;;;5057635;28;20105;-55
2023/02/06 07:23:24;;;;;;;4.07;3.28;;;20.30;99.90;;;;;;5054216;28;20032;-54
2023/02/06 07:25:51;;;;;;;7.63;3.92;;;20.40;99.90;;;;;;5069127;28;20386;-54
2023/02/06 07:28:16;;;;;;;5.40;2.78;;;20.30;99.90;;;;;;5074136;28;20064;-54
2023/02/06 07:30:42;;;;;;;5.72;3.97;;;20.30;99.90;;;;;;5059936;28;20118;-53
2023/02/06 07:33:08;;;;;;;6.10;3.40;;;20.30;99.90;;;;;;5061215;28;20032;-54
2023/02/06 07:35:34;;;;;;;6.47;3.83;;;20.30;99.90;;;;;;5073492;28;20347;-54
2023/02/06 07:38:00;;;;;;;5.97;3.75;;;20.30;99.90;;;;;;5054679;28;20021;-54
2023/02/06 07:40:26;;;;;;;5.70;3.58;;;20.30;99.90;;;;;;5053631;28;20033;-54
2023/02/06 07:42:52;;;;;;;4.63;3.40;;;20.30;99.90;;;;;;5057925;28;20027;-55
2023/02/06 07:45:17;;;;;;;5.28;3.40;;;20.30;99.90;;;;;;5073993;28;20413;-54
2023/02/06 07:47:44;;;;;;;4.05;3.00;;;20.30;99.90;;;;;;5055786;28;20475;-54
2023/02/06 07:50:10;;;;;;;7.97;3.22;;;20.30;99.90;;;;;;5062394;28;20020;-54
2023/02/06 07:52:36;;;;;;;4.57;3.28;;;20.30;99.90;;;;;;5073516;28;20057;-56
2023/02/06 07:55:03;;;;;;;7.53;3.95;;;20.30;99.90;;;;;;5047233;28;20024;-56
2023/02/06 07:57:29;;;;;;;6.50;3.70;;;20.30;99.90;;;;;;5068428;28;20102;-55
2023/02/06 07:59:54;;;;;;;6.60;3.78;;;20.30;99.90;;;;;;5064583;28;20475;-55
2023/02/06 08:02:20;;;;;;;5.13;3.58;;;20.30;99.90;;;;;;5053210;28;20036;-56
2023/02/06 08:04:46;;;;;;;6.28;3.63;;;20.40;99.90;;;;;;5060156;28;20017;-56
2023/02/06 08:07:15;;;;;;;6.13;3.45;;;20.40;99.90;;;;;;5073172;28;20028;-55
2023/02/06 08:09:41;;;;;;;6.30;3.50;;;20.40;99.90;;;;;;5073320;28;20016;-54
2023/02/06 08:12:07;;;;;;;6.25;4.05;;;20.40;99.90;;;;;;5055225;28;20378;-55
2023/02/06 08:14:33;;;;;;;9.10;4.57;;;20.40;99.90;;;;;;5073210;28;20115;-56
2023/02/06 08:16:59;;;;;;;8.52;3.40;;;20.40;99.90;;;;;;5072984;28;20099;-56
2023/02/06 08:19:25;;;;;;;5.50;3.58;;;20.40;99.90;;;;;;5053133;28;20017;-55
2023/02/06 08:21:50;;;;;;;4.75;3.60;;;20.40;99.90;;;;;;5053177;28;20143;-55
2023/02/06 08:24:16;;;;;;;4.35;3.50;;;20.50;99.90;;;;;;5058440;28;20020;-56
2023/02/06 08:26:45;;;;;;;6.15;3.92;;;20.50;99.90;;;;;;5060514;28;20060;-56
2023/02/06 08:29:13;;;;;;;6.55;4.07;;;20.50;99.90;;;;;;5057099;28;20025;-56
2023/02/06 08:31:40;;;;;;;7.03;3.85;;;20.50;99.90;;;;;;5072586;28;20024;-57
2023/02/06 08:34:09;;;;;;;7.65;4.15;;;20.60;99.90;;;;;;5054170;28;20029;-55
2023/02/06 08:36:35;;;;;;;4.95;4.05;;;20.50;99.90;;;;;;5062912;28;20075;-56
2023/02/06 08:39:01;;;;;;;5.22;3.55;;;20.60;99.90;;;;;;5055335;28;20416;-56
2023/02/06 08:41:31;;;;;;;4.95;3.40;;;20.60;99.90;;;;;;5034643;28;20118;-56
2023/02/06 08:43:59;;;;;;;7.25;4.47;;;20.60;99.90;;;;;;5065631;28;20020;-56
2023/02/06 08:46:28;;;;;;;5.85;3.85;;;20.60;99.90;;;;;;5062446;28;20060;-56
2023/02/06 08:48:55;;;;;;;4.57;3.10;;;20.60;99.90;;;;;;5057603;28;20115;-56
2023/02/06 08:51:21;;;;;;;6.28;4.20;;;20.60;99.90;;;;;;5065774;28;20151;-56
2023/02/06 08:53:47;;;;;;;7.38;3.55;;;20.60;99.90;;;;;;5052444;28;20060;-57
2023/02/06 08:56:13;;;;;;;4.68;3.17;;;20.70;99.90;;;;;;5056927;28;20017;-55
2023/02/06 08:58:39;;;;;;;5.85;3.75;;;20.70;99.90;;;;;;5060601;28;20029;-57
2023/02/06 09:01:12;;;;;;;5.03;3.33;;;20.70;99.90;;;;;;5065288;28;20090;-55
2023/02/06 09:03:38;;;;;;;5.68;3.85;;;20.70;99.90;;;;;;5063567;28;20077;-56
2023/02/06 09:06:04;;;;;;;5.85;3.53;;;20.70;99.90;;;;;;5056727;28;20474;-56
2023/02/06 09:08:31;;;;;;;6.65;3.75;;;20.80;99.90;;;;;;5062234;28;20040;-57
2023/02/06 09:11:06;;;;;;;6.43;3.70;;;20.80;99.90;;;;;;5054916;28;20086;-56
2023/02/06 09:13:33;;;;;;;5.47;3.90;;;20.80;99.90;;;;;;5063015;28;20040;-57
2023/02/06 09:15:58;;;;;;;4.88;3.58;;;20.80;99.90;;;;;;5054525;28;20485;-57
2023/02/06 09:18:25;;;;;;;5.75;4.03;;;20.80;99.90;;;;;;5063078;28;20056;-56
2023/02/06 09:20:52;;;;;;;4.13;3.60;;;20.80;99.90;;;;;;5051895;28;20032;-57
2023/02/06 09:23:18;;;;;;;4.78;3.63;;;20.90;99.90;;;;;;5051905;28;20513;-59
2023/02/06 09:25:44;;;;;;;4.68;3.55;;;20.90;99.90;;;;;;5066638;28;20024;-58
2023/02/06 09:28:11;;;;;;;4.47;3.15;;;20.90;99.90;;;;;;5058422;28;20024;-58
2023/02/06 09:30:38;;;;;;;5.65;3.88;;;20.90;99.90;;;;;;5053616;28;20044;-56
2023/02/06 09:33:03;;;;;;;5.82;3.53;;;20.90;99.90;;;;;;5066772;28;20040;-55
2023/02/06 09:35:29;;;;;;;7.68;4.18;;;21.00;99.90;;;;;;5051465;28;20079;-56
2023/02/06 09:37:55;;;;;;;5.72;3.95;;;21.00;99.90;;;;;;5056821;28;20440;-55
2023/02/06 09:40:26;;;;;;;6.85;3.97;;;21.00;99.90;;;;;;5061482;28;20029;-55
2023/02/06 09:42:53;;;;;;;6.57;4.43;;;21.00;99.90;;;;;;5064927;28;20401;-55
2023/02/06 09:45:22;;;;;;;6.05;4.13;;;21.10;99.90;;;;;;5051740;28;20480;-56
2023/02/06 09:47:58;;;;;;;6.03;3.97;;;21.10;99.90;;;;;;5054124;28;20043;-55
2023/02/06 09:50:48;;;;;;;5.45;3.97;;;21.10;99.90;;;;;;5060839;28;20075;-55
2023/02/06 09:53:49;;;;;;;5.05;3.92;;;21.10;99.90;;;;;;5070657;28;20028;-55
2023/02/06 09:56:40;;;;;;;6.47;4.18;;;21.20;99.90;;;;;;5029398;28;20109;-56
2023/02/06 09:59:12;;;;;;;5.43;3.63;;;21.20;99.90;;;;;;5051055;28;20033;-55
2023/02/06 10:02:04;;;;;;;5.70;3.83;;;21.20;99.90;;;;;;5051263;28;20570;-56
2023/02/06 10:04:54;;;;;;;5.47;4.28;;;21.30;99.90;;;;;;5031614;28;20168;-55
2023/02/06 10:07:44;;;;;;;5.93;4.05;;;21.30;99.90;;;;;;5041120;28;20047;-56
2023/02/06 10:10:22;;;;;;;6.00;4.10;;;21.30;99.90;;;;;;5040282;28;20053;-56
2023/02/06 10:13:50;;;;;;;5.28;4.05;;;21.30;99.90;;;;;;5051289;28;20037;-56
2023/02/06 10:16:24;;;;;;;5.25;3.83;;;21.40;99.90;;;;;;4951081;29;20027;-55
2023/02/06 10:18:54;;;;;;;5.30;3.92;;;21.50;99.90;;;;;;4951488;29;20046;-57
2023/02/06 10:21:42;;;;;;;5.97;3.70;;;21.50;99.90;;;;;;5006368;28;20037;-57
2023/02/06 10:24:31;;;;;;;7.35;4.65;;;21.50;99.90;;;;;;5065576;28;20501;-56
2023/02/06 10:27:01;;;;;;;5.55;4.38;;;21.60;99.90;;;;;;5060625;28;20032;-56
2023/02/06 10:29:31;;;;;;;6.28;4.47;;;21.60;99.90;;;;;;5055200;28;20029;-57
2023/02/06 10:32:18;;;;;;;6.53;4.20;;;21.70;99.90;;;;;;5051430;28;20463;-55
2023/02/06 10:35:10;;;;;;;6.85;4.35;;;21.70;99.90;;;;;;5069147;28;20021;-56
2023/02/06 10:37:51;;;;;;;6.57;4.38;;;21.70;99.90;;;;;;5030102;28;20115;-55
2023/02/06 10:40:34;;;;;;;6.07;4.45;;;21.80;99.90;;;;;;5039818;28;20386;-55
2023/02/06 10:43:12;;;;;;;8.27;4.97;;;21.80;99.90;;;;;;5051130;28;20025;-56
2023/02/06 10:45:46;;;;;;;7.75;5.60;;;21.90;99.90;;;;;;5051086;28;20017;-55
2023/02/06 10:48:31;;;;;;;6.18;4.97;;;21.90;99.90;;;;;;5054373;28;20470;-56
2023/02/06 10:51:18;;;;;;;7.57;5.03;;;21.90;99.90;;;;;;5070196;28;20024;-57
2023/02/06 10:53:49;;;;;;;7.15;5.38;;;22.00;99.90;;;;;;5054795;28;20060;-56
2023/02/06 10:56:18;;;;;;;8.82;6.13;;;22.10;99.90;;;;;;5071583;28;20424;-55
2023/02/06 10:59:23;;;;;;;9.48;6.32;;;22.10;99.90;;;;;;5065389;28;20020;-55
2023/02/06 11:01:54;;;;;;;10.13;6.28;;;22.10;99.90;;;;;;5050208;28;20124;-56
2023/02/06 11:04:37;;;;;;;9.60;7.18;;;22.20;99.90;;;;;;5074154;28;20103;-56
2023/02/06 11:07:16;;;;;;;9.10;6.55;;;22.20;99.90;;;;;;5064008;28;20103;-55
2023/02/06 11:09:42;;;;;;;9.18;6.72;;;22.20;99.90;;;;;;5060433;28;20533;-56
2023/02/06 11:12:30;;;;;;;9.82;7.32;;;22.30;99.90;;;;;;5064790;28;20025;-57
2023/02/06 11:15:00;;;;;;;9.63;7.03;;;22.30;99.90;;;;;;5054198;28;20017;-56
2023/02/06 11:17:27;;;;;;;9.32;7.10;;;22.30;99.90;;;;;;5067763;28;20017;-57
2023/02/06 11:20:01;;;;;;;10.77;6.60;;;22.40;99.90;;;;;;5055549;28;20104;-57
2023/02/06 11:22:30;;;;;;;11.05;7.20;;;22.40;99.90;;;;;;5054095;28;20092;-57
2023/02/06 11:25:29;;;;;;;9.48;6.65;;;22.40;99.90;;;;;;5054039;28;20154;-55
2023/02/06 11:27:56;;;;;;;8.98;6.57;;;22.50;99.90;;;;;;5056427;28;20036;-56
2023/02/06 11:30:25;;;;;;;;;;;22.50;99.90;;;;;;5074548;28;20025;-56
2023/02/06 11:33:04;;;;;;;9.18;6.28;;;22.60;99.90;;;;;;5058564;28;19904;-56
2023/02/06 11:35:36;;;;;;;8.70;6.47;;;22.60;99.90;;;;;;5053927;28;20029;-56
2023/02/06 11:38:04;;;;;;;11.07;7.03;;;22.60;99.90;;;;;;5053804;28;20096;-56
2023/02/06 11:40:30;;;;;;;10.18;6.85;;;22.70;99.90;;;;;;5063926;28;20052;-55
2023/02/06 11:43:32;;;;;;;10.63;6.97;;;22.70;99.90;;;;;;5056799;28;20052;-56
2023/02/06 11:46:11;;;;;;;7.43;5.82;;;22.70;99.90;;;;;;5053109;28;20402;-56
2023/02/06 11:48:41;;;;;;;7.57;5.72;;;22.70;99.90;;;;;;5064794;28;20068;-56
2023/02/06 11:51:08;;;;;;;7.95;6.03;;;22.70;99.90;;;;;;5069302;28;20090;-56
2023/02/06 11:53:36;;;;;;;10.13;6.25;;;22.80;99.90;;;;;;5061597;28;20017;-56
2023/02/06 11:56:01;;;;;;;;;;;22.80;99.90;;;;;;5072454;28;20074;-57
2023/02/06 11:58:28;;;;;;;8.52;5.40;;;22.80;99.90;;;;;;5053057;28;19905;-56
2023/02/06 12:01:08;;;;;;;8.98;6.05;;;22.90;99.90;;;;;;5053259;28;20376;-56
2023/02/06 12:03:50;;;;;;;7.30;5.75;;;22.90;99.90;;;;;;5042031;28;20025;-56
2023/02/06 12:06:38;;;;;;;9.02;6.00;;;22.90;99.90;;;;;;5055734;28;20551;-56
2023/02/06 12:09:10;;;;;;;9.07;6.00;;;22.90;99.90;;;;;;5073558;28;20068;-57
2023/02/06 12:11:45;;;;;;;9.27;5.80;;;23.00;99.90;;;;;;5068358;28;20013;-55
2023/02/06 12:14:38;;;;;;;8.65;5.88;;;23.00;99.90;;;;;;5052949;28;20025;-56
2023/02/06 12:17:30;;;;;;;8.95;6.13;;;23.00;99.90;;;;;;5053000;28;20078;-56
2023/02/06 12:20:05;;;;;;;8.23;5.85;;;23.00;99.90;;;;;;5054358;28;20013;-56
2023/02/06 12:22:38;;;;;;;8.55;6.18;;;23.00;99.90;;;;;;5065832;28;20021;-56
2023/02/06 12:25:04;;;;;;;8.98;6.07;;;23.10;99.90;;;;;;5067226;28;20025;-55
2023/02/06 12:27:36;;;;;;;8.73;5.05;;;23.10;99.90;;;;;;5052562;28;20025;-55
2023/02/06 12:30:25;;;;;;;9.63;5.70;;;23.10;99.90;;;;;;5053100;28;20033;-55
2023/02/06 12:33:12;;;;;;;9.60;5.95;;;23.10;99.90;;;;;;5052771;28;20074;-56
2023/02/06 12:35:54;;;;;;;8.23;5.70;;;23.20;99.90;;;;;;5063891;28;20028;-57
2023/02/06 12:38:52;;;;;;;10.13;5.55;;;23.20;99.90;;;;;;5038204;28;20265;-57
2023/02/06 12:41:27;;;;;;;8.65;6.07;;;23.30;99.90;;;;;;4991819;28;20037;-56
2023/02/06 12:44:00;;;;;;;7.10;5.50;;;23.30;99.90;;;;;;5063206;28;20514;-57
2023/02/06 12:46:27;;;;;;;9.02;5.90;;;23.30;99.90;;;;;;5068705;28;20036;-56
2023/02/06 12:49:20;;;;;;;8.38;5.45;;;23.30;99.90;;;;;;5052369;28;20096;-56
2023/02/06 12:52:03;;;;;;;9.82;6.15;;;23.30;99.90;;;;;;5052375;28;20048;-57
2023/02/06 12:54:36;;;;;;;8.38;5.95;;;23.30;99.90;;;;;;5052112;28;20025;-55
2023/02/06 12:57:11;;;;;;;7.57;5.63;;;23.40;99.90;;;;;;5052437;28;20102;-56
2023/02/06 13:00:13;;;;;;;7.68;5.47;;;23.40;99.90;;;;;;5067267;28;20025;-55
2023/02/06 13:03:07;;;;;;;8.75;5.47;;;23.40;99.90;;;;;;5055358;28;20029;-55
2023/02/06 13:05:39;;;;;;;8.18;6.22;;;23.40;99.90;;;;;;5071966;28;20021;-56
2023/02/06 13:08:40;;;;;;;8.63;6.05;;;23.50;99.90;;;;;;5052491;28;20033;-54